Time;durP1;ratioP1;P1;durP2;ratioP2;P2;SDS_P1;SDS_P2;PMS_P1;PMS_P2;Temp;Humidity;BMP_temperature;BMP_pressure;BME280_temperature;BME280_humidity;BME280_pressure;Samples;Min_cycle;Max_cycle;Signal;HPM_P1;HPM_P2
2022/06/01 00:02:03;;;;;;;;;;;;;;;21.24;63.66;100904.72;7404061;19;1361;-59
2022/06/01 00:04:31;;;;;;;;;;;;;;;21.29;63.37;100912.34;7403459;19;1882;-59
2022/06/01 00:06:59;;;;;;;;;;;;;;;21.19;63.20;100910.56;7404520;19;1354;-59
2022/06/01 00:09:30;;;;;;;;;;;;;;;21.23;62.88;100905.75;7405144;19;1335;-59
2022/06/01 00:11:59;;;;;;;;;;;;;;;21.24;63.55;100908.25;7405876;19;1391;-59
2022/06/01 00:14:27;;;;;;;;;;;;;;;21.22;63.62;100904.03;7404872;19;1469;-60
2022/06/01 00:16:57;;;;;;;;;;;;;;;21.28;63.40;100907.97;7404223;19;1547;-59
2022/06/01 00:19:25;;;;;;;;;;;;;;;21.27;63.13;100907.16;7404884;19;1294;-60
2022/06/01 00:24:39;;;;;;;;;;;;;;;21.23;63.17;100908.44;7401143;19;2675;-59
2022/06/01 00:27:08;;;;;;;;;;;;;;;21.13;62.65;100904.91;7403769;19;1308;-59
2022/06/01 00:29:36;;;;;;;;;;;;;;;21.10;62.78;100900.66;7404939;19;1381;-59
2022/06/01 00:32:05;;;;;;;;;;;;;;;21.16;62.85;100893.88;7404335;19;1520;-59
2022/06/01 00:34:33;;;;;;;;;;;;;;;21.16;63.02;100883.09;7403956;19;1385;-59
2022/06/01 00:37:02;;;;;;;;;;;;;;;21.00;63.11;100889.09;7405100;19;1389;-59
2022/06/01 00:39:30;;;;;;;;;;;;;;;21.11;62.62;100901.50;7404696;19;1317;-59
2022/06/01 00:42:13;;;;;;;;;;;;;;;21.15;62.99;100908.28;7403874;19;1631;-59
2022/06/01 00:44:42;;;;;;;;;;;;;;;21.18;63.05;100891.88;7401608;19;1856;-59
2022/06/01 00:47:11;;;;;;;;;;;;;;;21.09;63.05;100888.25;7403422;19;1348;-59
2022/06/01 00:49:41;;;;;;;;;;;;;;;21.00;62.71;100872.97;7403930;19;1365;-59
2022/06/01 00:52:11;;;;;;;;;;;;;;;21.12;62.94;100884.41;7404707;19;1892;-59
2022/06/01 00:54:39;;;;;;;;;;;;;;;21.11;62.64;100907.75;7403463;19;1674;-59
2022/06/01 00:57:10;;;;;;;;;;;;;;;21.18;62.84;100899.94;7403678;19;1634;-59
2022/06/01 00:59:43;;;;;;;;;;;;;;;21.15;62.43;100892.16;7403381;19;1757;-59
2022/06/01 01:02:12;;;;;;;;;;;;;;;21.16;62.35;100893.88;7401870;19;1947;-59
2022/06/01 01:04:41;;;;;;;;;;;;;;;21.19;62.21;100888.22;7401201;19;1855;-59
2022/06/01 01:07:12;;;;;;;;;;;;;;;21.15;62.39;100884.09;7406743;19;1313;-59
2022/06/01 01:09:41;;;;;;;;;;;;;;;21.11;62.19;100875.50;7410920;19;1567;-59
2022/06/01 01:12:11;;;;;;;;;;;;;;;21.13;62.40;100895.00;7408329;19;1371;-59
2022/06/01 01:14:44;;;;;;;;;;;;;;;21.11;62.47;100880.00;7409328;19;1686;-59
2022/06/01 01:17:13;;;;;;;;;;;;;;;20.90;62.81;100883.75;7410601;19;1621;-59
2022/06/01 01:19:43;;;;;;;;;;;;;;;21.00;62.04;100871.13;7411480;19;1779;-60
2022/06/01 01:22:33;;;;;;;;;;;;;;;21.12;61.91;100873.63;7410922;19;1662;-59
2022/06/01 01:25:18;;;;;;;;;;;;;;;21.15;61.75;100859.88;7406476;19;1849;-60
2022/06/01 01:27:47;;;;;;;;;;;;;;;21.16;61.87;100866.97;7410001;19;1362;-60
2022/06/01 01:30:34;;;;;;;;;;;;;;;21.17;61.80;100860.59;7409975;19;1465;-60
2022/06/01 01:33:04;;;;;;;;;;;;;;;21.17;61.97;100871.34;7409499;19;1856;-59
2022/06/01 01:35:32;;;;;;;;;;;;;;;21.15;62.07;100866.13;7410537;19;1521;-60
2022/06/01 01:38:02;;;;;;;;;;;;;;;21.16;61.89;100878.56;7410509;19;1441;-60
2022/06/01 01:40:33;;;;;;;;;;;;;;;21.18;62.00;100871.19;7409846;19;1347;-60
2022/06/01 01:43:02;;;;;;;;;;;;;;;21.13;61.58;100867.25;7409748;19;1853;-61
2022/06/01 01:45:32;;;;;;;;;;;;;;;21.09;61.59;100866.72;7407300;19;1619;-60
2022/06/01 01:48:01;;;;;;;;;;;;;;;21.03;61.43;100864.63;7409617;19;1342;-60
2022/06/01 01:50:29;;;;;;;;;;;;;;;20.96;61.64;100869.72;7409528;19;1763;-60
2022/06/01 01:52:57;;;;;;;;;;;;;;;20.95;61.42;100886.00;7411206;19;1335;-60
2022/06/01 01:55:31;;;;;;;;;;;;;;;20.95;61.21;100867.16;7409389;19;1679;-61
2022/06/01 01:58:07;;;;;;;;;;;;;;;21.02;61.34;100855.69;7409409;19;1761;-60
2022/06/01 02:00:37;;;;;;;;;;;;;;;21.10;61.43;100867.56;7403762;19;1363;-60
2022/06/01 02:03:09;;;;;;;;;;;;;;;21.00;61.10;100878.34;7404706;19;1845;-60
2022/06/01 02:08:25;;;;;;;;;;;;;;;20.91;61.16;100885.47;7408953;19;1203;-60
2022/06/01 02:13:39;;;;;;;;;;;;;;;20.98;61.21;100870.41;7410875;19;1391;-61
2022/06/01 02:16:08;;;;;;;;;;;;;;;21.06;61.39;100883.97;7408204;19;1482;-61
2022/06/01 02:18:40;;;;;;;;;;;;;;;20.92;61.37;100860.25;7408649;19;1740;-61
2022/06/01 02:21:10;;;;;;;;;;;;;;;20.98;61.34;100870.41;7408694;19;1312;-59
2022/06/01 02:23:40;;;;;;;;;;;;;;;21.05;61.46;100871.53;7408728;19;1865;-58
2022/06/01 02:26:09;;;;;;;;;;;;;;;20.91;61.41;100868.47;7408305;19;1662;-58
2022/06/01 02:28:41;;;;;;;;;;;;;;;20.90;61.61;100867.63;7409221;19;1578;-59
2022/06/01 02:31:10;;;;;;;;;;;;;;;21.01;61.62;100864.75;7408889;19;1326;-59
2022/06/01 02:33:40;;;;;;;;;;;;;;;20.98;61.35;100875.81;7408689;19;1740;-58
2022/06/01 02:36:09;;;;;;;;;;;;;;;20.93;61.50;100861.97;7407332;19;1498;-59
2022/06/01 02:38:41;;;;;;;;;;;;;;;21.02;61.46;100869.13;7407424;19;1602;-58
2022/06/01 02:42:25;;;;;;;;;;;;;;;21.02;61.04;100866.44;7407168;19;1342;-59
2022/06/01 02:44:01;;;;;;;;;;;;;;;20.98;61.17;100867.72;7405741;19;2219;-59
2022/06/01 02:46:30;;;;;;;;;;;;;;;21.01;60.99;100880.91;7408104;19;1522;-58
2022/06/01 02:49:00;;;;;;;;;;;;;;;21.00;61.11;100884.56;7408734;19;1618;-59
2022/06/01 02:51:29;;;;;;;;;;;;;;;21.00;60.95;100889.94;7407479;19;1631;-59
2022/06/01 02:53:57;;;;;;;;;;;;;;;20.87;61.08;100894.81;7408214;19;1503;-58
2022/06/01 02:56:27;;;;;;;;;;;;;;;20.88;60.78;100888.41;7408995;19;1603;-58
2022/06/01 02:58:56;;;;;;;;;;;;;;;20.95;60.67;100875.22;7408964;19;1629;-58
2022/06/01 03:01:27;;;;;;;;;;;;;;;20.98;60.78;100875.81;7404571;19;1539;-58
2022/06/01 03:03:56;;;;;;;;;;;;;;;20.95;60.68;100900.31;7407102;19;1843;-58
2022/06/01 03:06:25;;;;;;;;;;;;;;;20.95;60.54;100881.47;7407992;19;1366;-58
2022/06/01 03:08:53;;;;;;;;;;;;;;;20.87;60.85;100878.69;7407937;19;1515;-59
2022/06/01 03:11:21;;;;;;;;;;;;;;;20.97;60.64;100890.25;7406621;19;1697;-59
2022/06/01 03:13:50;;;;;;;;;;;;;;;20.97;60.36;100895.63;7407054;19;1496;-58
2022/06/01 03:16:19;;;;;;;;;;;;;;;20.90;60.72;100888.28;7407912;19;1527;-58
2022/06/01 03:18:50;;;;;;;;;;;;;;;20.96;60.73;100888.53;7405925;19;1249;-59
2022/06/01 03:21:19;;;;;;;;;;;;;;;20.95;61.17;100889.56;7406354;19;1531;-58
2022/06/01 03:23:47;;;;;;;;;;;;;;;20.99;60.74;100880.19;7406661;19;1853;-58
2022/06/01 03:26:16;;;;;;;;;;;;;;;20.99;60.67;100896.31;7407201;19;1693;-58
2022/06/01 03:28:44;;;;;;;;;;;;;;;20.95;60.99;100881.47;7406191;19;1914;-58
2022/06/01 03:31:13;;;;;;;;;;;;;;;20.90;60.97;100886.44;7406265;19;1282;-58
2022/06/01 03:33:41;;;;;;;;;;;;;;;20.90;60.79;100889.13;7405960;19;1563;-60
2022/06/01 03:36:12;;;;;;;;;;;;;;;20.96;60.87;100883.16;7406089;19;1514;-60
2022/06/01 03:38:41;;;;;;;;;;;;;;;21.00;61.04;100876.50;7406214;19;1500;-61
2022/06/01 03:41:09;;;;;;;;;;;;;;;21.08;60.53;100880.31;7405203;19;1539;-61
2022/06/01 03:45:55;;;;;;;;;;;;;;;21.06;61.06;100889.34;7406542;19;1853;-60
2022/06/01 03:46:23;;;;;;;;;;;;;;;21.10;60.97;100878.31;7406164;19;1479;-61
2022/06/01 03:48:52;;;;;;;;;;;;;;;21.09;60.58;100855.97;7406838;19;1613;-60
2022/06/01 03:51:24;;;;;;;;;;;;;;;21.03;60.68;100889.66;7406217;19;1690;-60
2022/06/01 03:53:52;;;;;;;;;;;;;;;20.98;61.25;100878.50;7406176;19;1554;-61
2022/06/01 03:56:22;;;;;;;;;;;;;;;21.08;60.66;100881.16;7406751;19;1551;-61
2022/06/01 03:58:51;;;;;;;;;;;;;;;21.10;61.21;100884.53;7406800;19;1496;-61
2022/06/01 04:01:19;;;;;;;;;;;;;;;21.19;61.05;100901.66;7403565;19;1598;-61
2022/06/01 04:03:48;;;;;;;;;;;;;;;21.18;60.90;100881.97;7405368;19;1851;-61
2022/06/01 04:06:16;;;;;;;;;;;;;;;21.18;61.03;100891.88;7405833;19;1607;-61
2022/06/01 04:08:47;;;;;;;;;;;;;;;21.23;61.17;100890.44;7405794;19;1564;-61
2022/06/01 04:11:16;;;;;;;;;;;;;;;21.22;61.32;100894.13;7405933;19;1527;-61
2022/06/01 04:13:44;;;;;;;;;;;;;;;21.28;61.00;100921.44;7406730;19;1015;-61
2022/06/01 04:16:12;;;;;;;;;;;;;;;21.27;61.01;100909.84;7406347;19;1586;-61
2022/06/01 04:18:41;;;;;;;;;;;;;;;21.31;61.44;100902.28;7404904;19;1462;-60
2022/06/01 04:21:09;;;;;;;;;;;;;;;21.34;61.43;100902.84;7405747;19;1622;-61
2022/06/01 04:23:37;;;;;;;;;;;;;;;21.32;61.60;100912.91;7405512;19;1853;-61
2022/06/01 04:26:08;;;;;;;;;;;;;;;21.36;61.76;100903.56;7405660;19;1543;-61
2022/06/01 04:28:37;;;;;;;;;;;;;;;21.38;61.70;100912.31;7405092;19;1089;-61
2022/06/01 04:31:05;;;;;;;;;;;;;;;21.40;62.25;100923.78;7404700;19;1502;-61
2022/06/01 04:33:33;;;;;;;;;;;;;;;21.39;62.22;100918.56;7404912;19;1568;-61
2022/06/01 04:36:02;;;;;;;;;;;;;;;21.44;62.06;100910.91;7404018;19;1694;-61
2022/06/01 04:38:30;;;;;;;;;;;;;;;21.44;62.08;100919.81;7404981;19;1555;-61
2022/06/01 04:40:59;;;;;;;;;;;;;;;21.45;62.29;100924.22;7405083;19;1556;-61
2022/06/01 04:43:30;;;;;;;;;;;;;;;21.48;62.43;100924.94;7404714;19;1838;-61
2022/06/01 04:45:58;;;;;;;;;;;;;;;21.49;62.40;100929.28;7402855;19;1884;-61
2022/06/01 04:48:27;;;;;;;;;;;;;;;21.52;62.68;100921.78;7404176;19;1774;-61
2022/06/01 04:50:56;;;;;;;;;;;;;;;21.53;62.40;100926.19;7405475;19;1539;-60
2022/06/01 04:53:25;;;;;;;;;;;;;;;21.56;62.42;100925.03;7404512;19;1285;-61
2022/06/01 04:55:53;;;;;;;;;;;;;;;21.55;62.66;100928.72;7404799;19;1558;-61
2022/06/01 04:58:22;;;;;;;;;;;;;;;21.59;62.87;100930.13;7404179;19;1773;-61
2022/06/01 05:00:53;;;;;;;;;;;;;;;21.51;64.31;100935.41;7403560;19;1538;-61
2022/06/01 05:03:21;;;;;;;;;;;;;;;21.57;63.57;100932.13;7404598;19;1335;-61
2022/06/01 05:05:50;;;;;;;;;;;;;;;21.67;63.32;100918.63;7399047;19;1842;-66
2022/06/01 05:08:21;;;;;;;;;;;;;;;21.74;63.35;100922.38;7402794;19;1400;-61
2022/06/01 05:10:49;;;;;;;;;;;;;;;21.66;64.61;100923.13;7401729;19;1747;-61
2022/06/01 05:13:19;;;;;;;;;;;;;;;21.72;64.63;100938.69;7401664;19;1441;-61
2022/06/01 05:15:49;;;;;;;;;;;;;;;21.66;63.91;100925.81;7401775;19;1685;-61
2022/06/01 05:18:20;;;;;;;;;;;;;;;21.69;64.50;100938.16;7400099;19;1347;-60
2022/06/01 05:20:49;;;;;;;;;;;;;;;21.85;64.25;100933.81;7397132;19;1500;-60
2022/06/01 05:23:18;;;;;;;;;;;;;;;21.85;64.33;100919.50;7398590;19;1323;-60
2022/06/01 05:25:47;;;;;;;;;;;;;;;21.83;64.56;100930.41;7399032;19;1868;-61
2022/06/01 05:28:18;;;;;;;;;;;;;;;21.84;64.43;100932.13;7399349;19;1263;-60
2022/06/01 05:30:47;;;;;;;;;;;;;;;21.86;64.22;100923.88;7397875;19;1434;-61
2022/06/01 05:33:15;;;;;;;;;;;;;;;21.87;64.46;100939.06;7394900;19;1405;-60
2022/06/01 05:35:46;;;;;;;;;;;;;;;21.92;64.22;100938.59;7401174;19;1378;-60
2022/06/01 05:38:15;;;;;;;;;;;;;;;21.94;64.68;100923.13;7400252;19;1438;-60
2022/06/01 05:40:43;;;;;;;;;;;;;;;21.93;64.72;100918.75;7402941;19;1753;-61
2022/06/01 05:43:13;;;;;;;;;;;;;;;21.91;64.42;100915.38;7402309;19;1737;-60
2022/06/01 05:45:42;;;;;;;;;;;;;;;21.90;64.67;100909.13;7400742;19;1848;-60
2022/06/01 05:48:12;;;;;;;;;;;;;;;21.97;64.47;100922.84;7402846;19;1304;-60
2022/06/01 05:50:40;;;;;;;;;;;;;;;21.91;64.37;100920.75;7402621;19;1665;-60
2022/06/01 05:53:12;;;;;;;;;;;;;;;21.84;64.78;100915.09;7405703;19;1709;-60
2022/06/01 05:55:41;;;;;;;;;;;;;;;21.87;64.59;100927.44;7409029;19;1588;-60
2022/06/01 05:58:17;;;;;;;;;;;;;;;21.89;64.24;100918.22;7409312;19;1390;-60
2022/06/01 06:00:46;;;;;;;;;;;;;;;21.87;65.02;100914.81;7407695;19;1385;-60
2022/06/01 06:03:15;;;;;;;;;;;;;;;21.92;64.91;100907.13;7409836;19;1327;-60
2022/06/01 06:08:28;;;;;;;;;;;;;;;22.04;64.28;100913.13;7410672;19;1284;-61
2022/06/01 06:10:57;;;;;;;;;;;;;;;22.08;64.51;100921.75;7409164;19;1337;-58
2022/06/01 06:13:25;;;;;;;;;;;;;;;22.13;64.32;100908.69;7408192;19;1559;-60
2022/06/01 06:15:54;;;;;;;;;;;;;;;22.20;64.07;100915.16;7408223;19;1501;-61
2022/06/01 06:18:22;;;;;;;;;;;;;;;22.24;63.90;100911.19;7409940;19;1425;-60
2022/06/01 06:20:51;;;;;;;;;;;;;;;22.40;63.61;100899.72;7408093;19;1500;-59
2022/06/01 06:23:19;;;;;;;;;;;;;;;22.45;63.73;100902.81;7408995;19;1485;-59
2022/06/01 06:25:51;;;;;;;;;;;;;;;22.61;63.66;100918.25;7406874;19;1864;-58
2022/06/01 06:28:19;;;;;;;;;;;;;;;22.59;63.51;100907.63;7407492;19;1560;-58
2022/06/01 06:30:47;;;;;;;;;;;;;;;22.49;64.40;100917.66;7408266;19;1469;-58
2022/06/01 06:33:16;;;;;;;;;;;;;;;22.50;64.75;100924.75;7409505;19;1410;-58
2022/06/01 06:35:44;;;;;;;;;;;;;;;22.44;64.62;100918.13;7408360;19;1547;-58
2022/06/01 06:38:13;;;;;;;;;;;;;;;22.43;64.59;100902.94;7408968;19;1599;-59
2022/06/01 06:40:41;;;;;;;;;;;;;;;22.51;64.57;100912.97;7408255;19;1768;-58
2022/06/01 06:43:12;;;;;;;;;;;;;;;22.54;64.72;100906.41;7407559;19;1466;-58
2022/06/01 06:45:41;;;;;;;;;;;;;;;22.49;64.43;100898.78;7406871;19;1849;-58
2022/06/01 06:51:05;;;;;;;;;;;;;;;22.54;64.67;100899.19;7408060;19;1294;-58
2022/06/01 06:53:34;;;;;;;;;;;;;;;22.63;64.55;100895.53;7407762;19;1549;-59
2022/06/01 06:56:02;;;;;;;;;;;;;;;22.55;64.78;100887.38;7408539;19;1619;-59
2022/06/01 06:58:33;;;;;;;;;;;;;;;22.49;64.66;100888.00;7407892;19;1520;-61
2022/06/01 07:01:02;;;;;;;;;;;;;;;22.47;64.89;100881.94;7406080;19;1389;-59
2022/06/01 07:03:30;;;;;;;;;;;;;;;22.47;64.71;100890.03;7407750;19;1845;-59
2022/06/01 07:08:40;;;;;;;;;;;;;;;22.46;64.83;100901.78;7408214;19;1448;-59
2022/06/01 07:11:09;;;;;;;;;;;;;;;22.40;64.88;100888.94;7406319;19;1393;-59
2022/06/01 07:13:40;;;;;;;;;;;;;;;22.39;64.94;100888.09;7408463;19;1322;-59
2022/06/01 07:16:10;;;;;;;;;;;;;;;22.41;65.01;100891.47;7406043;19;1681;-59
2022/06/01 07:18:39;;;;;;;;;;;;;;;22.40;64.92;100897.88;7408216;19;1536;-59
2022/06/01 07:21:08;;;;;;;;;;;;;;;22.41;65.03;100907.66;7408164;19;1425;-59
2022/06/01 07:23:37;;;;;;;;;;;;;;;22.44;65.14;100909.19;7405597;19;1317;-59
2022/06/01 07:26:06;;;;;;;;;;;;;;;22.41;64.86;100907.66;7405526;19;1858;-60
2022/06/01 07:28:35;;;;;;;;;;;;;;;22.43;64.97;100896.72;7407314;19;1420;-59
2022/06/01 07:31:06;;;;;;;;;;;;;;;22.42;64.79;100901.28;7406592;19;1803;-60
2022/06/01 07:33:35;;;;;;;;;;;;;;;22.43;65.03;100904.81;7406872;19;1375;-59
2022/06/01 07:36:06;;;;;;;;;;;;;;;22.42;65.05;100898.59;7403896;19;1470;-60
2022/06/01 07:43:58;;;;;;;;;;;;;;;22.44;65.39;100888.50;7405869;19;1354;-60
2022/06/01 07:46:29;;;;;;;;;;;;;;;22.47;65.30;100886.50;7403820;19;1855;-63
2022/06/01 07:48:58;;;;;;;;;;;;;;;22.49;65.81;100887.19;7406750;19;1318;-64
2022/06/01 07:51:26;;;;;;;;;;;;;;;22.49;65.40;100888.00;7406018;19;1485;-65
2022/06/01 07:53:55;;;;;;;;;;;;;;;22.50;65.71;100894.25;7404741;19;1376;-64
2022/06/01 07:56:23;;;;;;;;;;;;;;;22.50;65.82;100880.78;7406632;19;1441;-63
2022/06/01 07:58:52;;;;;;;;;;;;;;;22.56;66.05;100886.41;7405210;19;1643;-63
2022/06/01 08:01:21;;;;;;;;;;;;;;;22.49;65.82;100874.53;7405268;19;1482;-61
2022/06/01 08:03:51;;;;;;;;;;;;;;;22.47;66.14;100879.25;7405715;19;1371;-68
2022/06/01 08:06:20;;;;;;;;;;;;;;;22.50;65.86;100889.72;7406114;19;1866;-63
2022/06/01 08:08:48;;;;;;;;;;;;;;;22.49;66.22;100898.78;7405694;19;1694;-64
2022/06/01 08:11:17;;;;;;;;;;;;;;;22.51;66.24;100895.94;7405040;19;1617;-62
2022/06/01 08:13:43;;;;;;;;;;;;;;;22.50;66.22;100888.84;7405279;19;1393;-65
2022/06/01 08:16:11;;;;;;;;;;;;;;;22.54;66.05;100893.81;7404692;19;1442;-65
2022/06/01 08:18:40;;;;;;;;;;;;;;;22.50;65.88;100892.41;7406349;19;1690;-61
2022/06/01 08:21:11;;;;;;;;;;;;;;;22.49;66.22;100892.56;7405458;19;1645;-62
2022/06/01 08:23:39;;;;;;;;;;;;;;;22.45;66.14;100886.63;7404504;19;1753;-59
2022/06/01 08:26:08;;;;;;;;;;;;;;;22.46;65.86;100882.91;7403522;19;1849;-61
2022/06/01 08:28:37;;;;;;;;;;;;;;;22.48;65.76;100899.78;7404133;19;1359;-61
2022/06/01 08:31:05;;;;;;;;;;;;;;;22.48;65.88;100889.00;7404752;19;1641;-62
2022/06/01 08:33:34;;;;;;;;;;;;;;;22.54;65.57;100901.00;7405230;19;1682;-62
2022/06/01 08:36:03;;;;;;;;;;;;;;;22.47;65.84;100878.41;7404944;19;1523;-62
2022/06/01 08:38:34;;;;;;;;;;;;;;;22.47;65.67;100878.41;7405504;19;1733;-62
2022/06/01 08:41:04;;;;;;;;;;;;;;;22.47;65.86;100884.63;7405732;19;1610;-62
2022/06/01 08:43:35;;;;;;;;;;;;;;;22.48;66.18;100891.69;7404301;19;1341;-62
2022/06/01 08:46:05;;;;;;;;;;;;;;;22.47;66.02;100884.63;7403667;19;1860;-62
2022/06/01 08:48:36;;;;;;;;;;;;;;;22.45;65.93;100878.56;7404046;19;1535;-62
2022/06/01 08:51:06;;;;;;;;;;;;;;;22.47;65.63;100890.03;7401747;19;1264;-62
2022/06/01 08:53:37;;;;;;;;;;;;;;;22.44;65.79;100901.09;7403892;19;1276;-62
2022/06/01 08:56:10;;;;;;;;;;;;;;;22.44;65.78;100885.78;7403770;19;1370;-61
2022/06/01 08:58:42;;;;;;;;;;;;;;;22.46;65.83;100887.47;7402152;19;1258;-62
2022/06/01 09:01:15;;;;;;;;;;;;;;;22.45;65.91;100873.16;7399952;19;1377;-63
2022/06/01 09:03:45;;;;;;;;;;;;;;;22.55;65.95;100882.00;7401963;19;1347;-63
2022/06/01 09:06:17;;;;;;;;;;;;;;;22.55;66.14;100876.59;7400624;19;1847;-64
2022/06/01 09:08:51;;;;;;;;;;;;;;;22.54;66.31;100879.44;7401766;19;1476;-62
2022/06/01 09:11:20;;;;;;;;;;;;;;;22.48;66.31;100867.44;7403114;19;1351;-62
2022/06/01 09:13:54;;;;;;;;;;;;;;;22.45;66.59;100875.84;7402548;19;1299;-62
2022/06/01 09:16:25;;;;;;;;;;;;;;;22.44;66.36;100875.03;7403750;19;1346;-65
2022/06/01 09:18:55;;;;;;;;;;;;;;;22.45;66.00;100870.47;7403792;19;1272;-66
2022/06/01 09:24:08;;;;;;;;;;;;;;;22.43;66.06;100861.69;7403823;19;1319;-61
2022/06/01 09:26:37;;;;;;;;;;;;;;;22.44;66.45;100876.84;7401210;19;1855;-62
2022/06/01 09:29:05;;;;;;;;;;;;;;;22.41;66.60;100871.78;7407586;19;1757;-62
2022/06/01 09:31:38;;;;;;;;;;;;;;;22.35;66.64;100864.31;7409590;19;1436;-62
2022/06/01 09:34:18;;;;;;;;;;;;;;;22.43;66.27;100884.09;7410743;19;1386;-62
2022/06/01 09:36:57;;;;;;;;;;;;;;;22.39;66.18;100873.78;7410384;19;1706;-62
2022/06/01 09:39:28;;;;;;;;;;;;;;;22.33;66.23;100863.63;7409658;19;1634;-62
2022/06/01 09:42:12;;;;;;;;;;;;;;;22.35;66.00;100864.31;7409513;19;1473;-62
2022/06/01 09:44:45;;;;;;;;;;;;;;;22.34;66.08;100857.22;7410002;19;1474;-63
2022/06/01 09:47:22;;;;;;;;;;;;;;;22.34;66.32;100862.63;7407510;19;1847;-62
2022/06/01 09:49:54;;;;;;;;;;;;;;;22.32;66.46;100854.72;7409488;19;1351;-63
2022/06/01 09:52:27;;;;;;;;;;;;;;;22.32;66.12;100859.22;7409613;19;1570;-63
2022/06/01 09:54:59;;;;;;;;;;;;;;;22.34;65.98;100851.84;7408699;19;1628;-63
2022/06/01 09:57:29;;;;;;;;;;;;;;;22.30;66.28;100845.91;7410734;19;1614;-63
2022/06/01 10:08:11;;;;;;;;;;;;;;;22.35;65.97;100853.56;7410739;19;1301;-63
2022/06/01 10:10:43;;;;;;;;;;;;;;;22.32;66.21;100851.16;7409392;19;1667;-63
2022/06/01 10:13:12;;;;;;;;;;;;;;;22.32;66.29;100843.06;7409273;19;1417;-63
2022/06/01 10:15:43;;;;;;;;;;;;;;;22.32;66.52;100843.94;7409465;19;1532;-63
2022/06/01 10:18:14;;;;;;;;;;;;;;;22.29;66.38;100838.00;7409377;19;1662;-63
2022/06/01 10:20:46;;;;;;;;;;;;;;;22.37;66.66;100843.47;7408943;19;1570;-63
2022/06/01 10:23:17;;;;;;;;;;;;;;;22.34;66.33;100846.44;7409568;19;1613;-63
2022/06/01 10:25:52;;;;;;;;;;;;;;;22.35;66.71;100850.84;7408735;19;1863;-63
2022/06/01 10:28:22;;;;;;;;;;;;;;;22.37;66.91;100816.50;7408939;19;1755;-62
2022/06/01 10:30:52;;;;;;;;;;;;;;;22.52;66.12;100854.50;7408003;19;1681;-62
2022/06/01 10:33:23;;;;;;;;;;;;;;;22.46;66.26;100826.34;7407388;19;1320;-67
2022/06/01 10:35:55;;;;;;;;;;;;;;;22.42;66.41;100822.25;7408048;19;1477;-69
2022/06/01 10:38:27;;;;;;;;;;;;;;;22.41;66.37;100831.38;7409185;19;1559;-63
2022/06/01 10:41:00;;;;;;;;;;;;;;;22.39;66.41;100820.75;7408676;19;1394;-63
2022/06/01 10:43:38;;;;;;;;;;;;;;;22.37;66.42;100821.91;7409094;19;1665;-64
2022/06/01 10:46:08;;;;;;;;;;;;;;;22.49;66.19;100839.50;7406544;19;1848;-63
2022/06/01 10:48:40;;;;;;;;;;;;;;;22.42;66.63;100815.06;7408352;19;1552;-61
2022/06/01 10:51:11;;;;;;;;;;;;;;;22.40;66.75;100816.19;7407658;19;1576;-62
2022/06/01 10:53:52;;;;;;;;;;;;;;;22.36;66.51;100828.28;7408483;19;1341;-63
2022/06/01 10:56:24;;;;;;;;;;;;;;;22.32;66.68;100822.38;7409686;19;1349;-63
2022/06/01 10:58:54;;;;;;;;;;;;;;;22.30;66.58;100820.81;7408801;19;1535;-59
2022/06/01 11:01:29;;;;;;;;;;;;;;;22.32;66.32;100818.81;7405784;19;1614;-61
2022/06/01 11:04:16;;;;;;;;;;;;;;;22.31;66.48;100819.84;7407870;19;1698;-62
2022/06/01 11:07:05;;;;;;;;;;;;;;;22.31;66.60;100820.69;7406138;19;1859;-59
2022/06/01 11:09:38;;;;;;;;;;;;;;;22.28;66.30;100812.06;7402054;19;1578;-59
2022/06/01 11:12:13;;;;;;;;;;;;;;;22.32;66.26;100821.50;7407059;19;1498;-59
2022/06/01 11:14:51;;;;;;;;;;;;;;;22.29;66.34;100820.00;7407392;19;1411;-59
2022/06/01 11:17:24;;;;;;;;;;;;;;;22.33;66.37;100825.91;7406123;19;1719;-59
2022/06/01 11:19:59;;;;;;;;;;;;;;;22.27;66.20;100807.69;7407245;19;1390;-59
2022/06/01 11:22:36;;;;;;;;;;;;;;;22.28;66.24;100812.06;7407370;19;1390;-59
2022/06/01 11:25:16;;;;;;;;;;;;;;;22.27;66.45;100802.28;7406629;19;1425;-59
2022/06/01 11:27:52;;;;;;;;;;;;;;;22.30;66.29;100807.34;7405555;19;1849;-59
2022/06/01 11:30:22;;;;;;;;;;;;;;;22.24;66.52;100787.28;7406069;19;1426;-59
2022/06/01 11:32:55;;;;;;;;;;;;;;;22.23;66.21;100797.19;7407178;19;1442;-59
2022/06/01 11:35:28;;;;;;;;;;;;;;;22.26;66.73;100795.19;7406630;19;1353;-59
2022/06/01 11:38:02;;;;;;;;;;;;;;;22.26;66.85;100792.50;7407280;19;1677;-59
2022/06/01 11:40:39;;;;;;;;;;;;;;;22.27;66.91;100797.75;7405983;19;1785;-59
2022/06/01 11:43:15;;;;;;;;;;;;;;;22.26;66.45;100795.19;7406352;19;1654;-59
2022/06/01 11:45:47;;;;;;;;;;;;;;;22.27;66.83;100786.13;7405374;19;1646;-59
2022/06/01 11:48:16;;;;;;;;;;;;;;;22.24;66.72;100782.75;7404927;19;1847;-59
2022/06/01 11:50:55;;;;;;;;;;;;;;;22.22;66.60;100776.66;7404847;19;1674;-59
2022/06/01 11:53:24;;;;;;;;;;;;;;;22.26;66.78;100771.78;7406217;19;1284;-59
2022/06/01 11:55:53;;;;;;;;;;;;;;;22.23;66.53;100778.31;7407948;19;1319;-59
2022/06/01 11:58:41;;;;;;;;;;;;;;;22.23;66.71;100764.84;7406859;19;1623;-59
2022/06/01 12:01:13;;;;;;;;;;;;;;;22.25;66.64;100756.66;7403495;19;1590;-59
2022/06/01 12:03:53;;;;;;;;;;;;;;;22.27;66.50;100748.41;7405404;19;1516;-59
2022/06/01 12:06:37;;;;;;;;;;;;;;;22.28;66.42;100752.78;7404773;19;1848;-58
2022/06/01 12:09:06;;;;;;;;;;;;;;;22.26;66.45;100757.50;7406513;19;1515;-59
2022/06/01 12:11:45;;;;;;;;;;;;;;;22.25;66.59;100724.31;7405233;19;1662;-59
2022/06/01 12:14:32;;;;;;;;;;;;;;;22.26;66.72;100726.00;7405297;19;1696;-59
2022/06/01 12:17:15;;;;;;;;;;;;;;;22.25;66.82;100732.41;7405034;19;1299;-59
2022/06/01 12:19:47;;;;;;;;;;;;;;;22.31;66.54;100730.94;7404788;19;1300;-59
2022/06/01 12:30:48;;;;;;;;;;;;;;;22.30;66.94;100748.09;7405241;19;1368;-59
2022/06/01 12:33:16;;;;;;;;;;;;;;;22.29;66.60;100741.03;7405074;19;1306;-59
2022/06/01 12:35:49;;;;;;;;;;;;;;;22.27;66.67;100737.66;7404151;19;1363;-59
2022/06/01 12:38:24;;;;;;;;;;;;;;;22.29;66.82;100732.94;7405088;19;1272;-59
2022/06/01 12:40:57;;;;;;;;;;;;;;;22.29;67.05;100735.63;7404729;19;1440;-59
2022/06/01 12:43:25;;;;;;;;;;;;;;;22.29;66.83;100730.25;7405576;19;1565;-59
2022/06/01 12:45:55;;;;;;;;;;;;;;;22.25;66.68;100729.72;7403545;19;1737;-59
2022/06/01 12:48:25;;;;;;;;;;;;;;;22.24;67.02;100720.78;7402287;19;1889;-59
2022/06/01 12:50:58;;;;;;;;;;;;;;;22.24;66.86;100723.50;7404937;19;1337;-59
2022/06/01 12:53:27;;;;;;;;;;;;;;;22.29;66.74;100727.56;7405497;19;1350;-59
2022/06/01 12:56:07;;;;;;;;;;;;;;;22.26;66.73;100722.47;7405534;19;1628;-58
2022/06/01 12:58:36;;;;;;;;;;;;;;;22.36;67.03;100726.78;7403807;19;1545;-57
2022/06/01 13:01:05;;;;;;;;;;;;;;;22.41;66.53;100743.28;7403443;19;1531;-57
2022/06/01 13:03:35;;;;;;;;;;;;;;;22.38;66.62;100723.88;7409034;19;1280;-58
2022/06/01 13:06:10;;;;;;;;;;;;;;;22.51;66.69;100720.78;7411684;19;1563;-58
2022/06/01 13:08:40;;;;;;;;;;;;;;;22.58;66.32;100727.22;7407910;19;1888;-58
2022/06/01 13:11:25;;;;;;;;;;;;;;;22.51;66.79;100729.72;7411420;19;1365;-59
2022/06/01 13:13:53;;;;;;;;;;;;;;;22.55;66.97;100714.06;7411946;19;1214;-59
2022/06/01 13:16:22;;;;;;;;;;;;;;;22.51;66.84;100716.22;7412328;19;1301;-59
2022/06/01 13:18:51;;;;;;;;;;;;;;;22.44;66.95;100712.47;7411628;19;1461;-59
2022/06/01 13:21:26;;;;;;;;;;;;;;;22.45;66.92;100724.97;7408456;19;1691;-59
2022/06/01 13:23:57;;;;;;;;;;;;;;;22.45;67.09;100724.97;7411856;19;1539;-59
2022/06/01 13:26:31;;;;;;;;;;;;;;;22.44;66.88;100723.25;7410685;19;1738;-59
2022/06/01 13:29:02;;;;;;;;;;;;;;;22.45;66.90;100724.97;7411804;19;1351;-59
2022/06/01 13:31:31;;;;;;;;;;;;;;;22.44;67.16;100725.94;7409637;19;1794;-59
2022/06/01 13:34:00;;;;;;;;;;;;;;;22.58;67.07;100716.44;7410833;19;1547;-59
2022/06/01 13:36:32;;;;;;;;;;;;;;;22.53;66.68;100729.56;7411171;19;1494;-63
2022/06/01 13:39:05;;;;;;;;;;;;;;;22.46;67.83;100717.72;7411105;19;1295;-61
2022/06/01 13:41:38;;;;;;;;;;;;;;;22.53;67.91;100735.78;7410547;19;1378;-63
2022/06/01 13:44:09;;;;;;;;;;;;;;;22.47;67.71;100722.94;7409797;19;1552;-58
2022/06/01 13:46:41;;;;;;;;;;;;;;;22.48;68.44;100724.63;7410312;19;1869;-61
2022/06/01 13:49:12;;;;;;;;;;;;;;;22.50;68.50;100727.16;7409845;19;1618;-62